Iglesia, Argentina
Current Conditions -  °F | °C
As of 9:00 PM on Saturday 25 Oct 2014 (Local Time) from SCSE Reporting Station
NA  
Wind Chill: 14°   Ceiling: NA
Heat Index: 14°   Visibility: NA
Dew Point: 12°   Wind: 2mph
Humidity: 88%   Direction: NA
Pressure: 29.97"   Gusts: NA
Location:  30.17°S, 69.21°W
Report Text: SCSE 260000Z AUTO VRB02KT //// // ////// 14/12 Q1015
Loading
Personal Weather Stations






























Interactive Weather Map
Tropical Storm Tracking
New forecast layout! Learn more

10-Day Weather Forecast

Advertisements
Track Severe Weather on mobile